sensor_id;sensor_type;location;lat;lon;timestamp;P1;durP1;ratioP1;P2;durP2;ratioP2
1577;SDS011;57623;53.608;10.004;2023-07-31T00:00:09;3.07;;;2.87;;
1577;SDS011;57623;53.608;10.004;2023-07-31T00:02:38;3.80;;;2.57;;
1577;SDS011;57623;53.608;10.004;2023-07-31T00:05:07;6.80;;;3.77;;
1577;SDS011;57623;53.608;10.004;2023-07-31T00:07:36;3.43;;;3.13;;
1577;SDS011;57623;53.608;10.004;2023-07-31T00:10:04;4.10;;;3.07;;
1577;SDS011;57623;53.608;10.004;2023-07-31T00:12:33;3.30;;;2.97;;
1577;SDS011;57623;53.608;10.004;2023-07-31T00:15:01;5.50;;;3.00;;
1577;SDS011;57623;53.608;10.004;2023-07-31T00:17:29;4.40;;;3.07;;
1577;SDS011;57623;53.608;10.004;2023-07-31T00:19:58;5.00;;;2.67;;
1577;SDS011;57623;53.608;10.004;2023-07-31T00:22:26;7.33;;;2.90;;
1577;SDS011;57623;53.608;10.004;2023-07-31T00:24:54;4.63;;;3.20;;
1577;SDS011;57623;53.608;10.004;2023-07-31T00:27:23;3.30;;;2.40;;
1577;SDS011;57623;53.608;10.004;2023-07-31T00:29:51;4.20;;;3.10;;
1577;SDS011;57623;53.608;10.004;2023-07-31T00:32:19;4.10;;;2.80;;
1577;SDS011;57623;53.608;10.004;2023-07-31T00:34:47;4.07;;;3.00;;
1577;SDS011;57623;53.608;10.004;2023-07-31T00:37:16;9.33;;;3.13;;
1577;SDS011;57623;53.608;10.004;2023-07-31T00:39:44;4.83;;;2.63;;
1577;SDS011;57623;53.608;10.004;2023-07-31T00:42:12;9.17;;;2.90;;
1577;SDS011;57623;53.608;10.004;2023-07-31T00:44:40;6.57;;;2.90;;
1577;SDS011;57623;53.608;10.004;2023-07-31T00:47:08;3.80;;;3.20;;
1577;SDS011;57623;53.608;10.004;2023-07-31T00:49:36;4.27;;;2.67;;
1577;SDS011;57623;53.608;10.004;2023-07-31T00:52:04;3.60;;;3.20;;
1577;SDS011;57623;53.608;10.004;2023-07-31T00:54:34;4.47;;;2.77;;
1577;SDS011;57623;53.608;10.004;2023-07-31T00:57:02;5.27;;;2.60;;
1577;SDS011;57623;53.608;10.004;2023-07-31T00:59:31;5.17;;;2.90;;
1577;SDS011;57623;53.608;10.004;2023-07-31T01:01:59;5.13;;;3.23;;
1577;SDS011;57623;53.608;10.004;2023-07-31T01:04:27;3.60;;;2.80;;
1577;SDS011;57623;53.608;10.004;2023-07-31T01:06:56;6.70;;;3.10;;
1577;SDS011;57623;53.608;10.004;2023-07-31T01:09:33;4.73;;;3.10;;
1577;SDS011;57623;53.608;10.004;2023-07-31T01:12:09;4.47;;;3.33;;
1577;SDS011;57623;53.608;10.004;2023-07-31T01:14:50;3.67;;;2.90;;
1577;SDS011;57623;53.608;10.004;2023-07-31T01:17:18;5.07;;;2.73;;
1577;SDS011;57623;53.608;10.004;2023-07-31T01:19:46;5.77;;;3.40;;
1577;SDS011;57623;53.608;10.004;2023-07-31T01:22:19;6.60;;;3.10;;
1577;SDS011;57623;53.608;10.004;2023-07-31T01:25:03;7.20;;;3.40;;
1577;SDS011;57623;53.608;10.004;2023-07-31T01:27:42;8.33;;;3.20;;
1577;SDS011;57623;53.608;10.004;2023-07-31T01:30:16;4.93;;;3.00;;
1577;SDS011;57623;53.608;10.004;2023-07-31T01:32:50;3.87;;;3.00;;
1577;SDS011;57623;53.608;10.004;2023-07-31T01:35:20;5.50;;;2.90;;
1577;SDS011;57623;53.608;10.004;2023-07-31T01:37:48;3.97;;;3.47;;
1577;SDS011;57623;53.608;10.004;2023-07-31T01:40:16;4.73;;;3.23;;
1577;SDS011;57623;53.608;10.004;2023-07-31T01:42:45;7.13;;;3.93;;
1577;SDS011;57623;53.608;10.004;2023-07-31T01:45:13;4.70;;;3.30;;
1577;SDS011;57623;53.608;10.004;2023-07-31T01:47:41;5.07;;;3.20;;
1577;SDS011;57623;53.608;10.004;2023-07-31T01:50:09;4.47;;;4.07;;
1577;SDS011;57623;53.608;10.004;2023-07-31T01:52:37;5.63;;;3.53;;
1577;SDS011;57623;53.608;10.004;2023-07-31T01:55:05;5.50;;;3.60;;
1577;SDS011;57623;53.608;10.004;2023-07-31T01:57:34;5.77;;;3.70;;
1577;SDS011;57623;53.608;10.004;2023-07-31T02:00:04;5.13;;;3.60;;
1577;SDS011;57623;53.608;10.004;2023-07-31T02:02:33;5.57;;;3.73;;
1577;SDS011;57623;53.608;10.004;2023-07-31T02:05:01;6.70;;;3.07;;
1577;SDS011;57623;53.608;10.004;2023-07-31T02:07:30;6.07;;;3.97;;
1577;SDS011;57623;53.608;10.004;2023-07-31T02:09:58;6.80;;;3.37;;
1577;SDS011;57623;53.608;10.004;2023-07-31T02:12:26;3.93;;;3.50;;
1577;SDS011;57623;53.608;10.004;2023-07-31T02:14:56;3.60;;;2.93;;
1577;SDS011;57623;53.608;10.004;2023-07-31T02:17:26;4.80;;;3.90;;
1577;SDS011;57623;53.608;10.004;2023-07-31T02:19:54;5.60;;;4.13;;
1577;SDS011;57623;53.608;10.004;2023-07-31T02:22:22;7.10;;;3.90;;
1577;SDS011;57623;53.608;10.004;2023-07-31T02:24:49;6.03;;;4.50;;
1577;SDS011;57623;53.608;10.004;2023-07-31T02:27:17;6.90;;;4.40;;
1577;SDS011;57623;53.608;10.004;2023-07-31T02:29:45;4.40;;;3.90;;
1577;SDS011;57623;53.608;10.004;2023-07-31T02:32:13;4.93;;;4.00;;
1577;SDS011;57623;53.608;10.004;2023-07-31T02:34:42;6.07;;;3.90;;
1577;SDS011;57623;53.608;10.004;2023-07-31T02:37:10;6.37;;;3.60;;
1577;SDS011;57623;53.608;10.004;2023-07-31T02:39:38;4.90;;;3.60;;
1577;SDS011;57623;53.608;10.004;2023-07-31T02:42:06;4.80;;;3.50;;
1577;SDS011;57623;53.608;10.004;2023-07-31T02:44:34;5.03;;;3.77;;
1577;SDS011;57623;53.608;10.004;2023-07-31T02:47:02;4.00;;;3.40;;
1577;SDS011;57623;53.608;10.004;2023-07-31T02:49:30;3.87;;;3.33;;
1577;SDS011;57623;53.608;10.004;2023-07-31T02:51:59;6.20;;;3.40;;
1577;SDS011;57623;53.608;10.004;2023-07-31T02:54:27;6.27;;;3.93;;
1577;SDS011;57623;53.608;10.004;2023-07-31T02:56:55;4.07;;;3.67;;
1577;SDS011;57623;53.608;10.004;2023-07-31T02:59:23;4.20;;;3.13;;
1577;SDS011;57623;53.608;10.004;2023-07-31T03:01:52;5.30;;;3.70;;
1577;SDS011;57623;53.608;10.004;2023-07-31T03:04:20;6.63;;;3.43;;
1577;SDS011;57623;53.608;10.004;2023-07-31T03:06:48;6.07;;;3.63;;
1577;SDS011;57623;53.608;10.004;2023-07-31T03:09:17;4.53;;;3.30;;
1577;SDS011;57623;53.608;10.004;2023-07-31T03:11:45;6.97;;;3.73;;
1577;SDS011;57623;53.608;10.004;2023-07-31T03:14:13;4.23;;;3.50;;
1577;SDS011;57623;53.608;10.004;2023-07-31T03:16:43;4.03;;;3.10;;
1577;SDS011;57623;53.608;10.004;2023-07-31T03:19:11;3.53;;;3.23;;
1577;SDS011;57623;53.608;10.004;2023-07-31T03:21:39;8.00;;;4.27;;
1577;SDS011;57623;53.608;10.004;2023-07-31T03:24:07;4.00;;;3.60;;
1577;SDS011;57623;53.608;10.004;2023-07-31T03:26:36;6.90;;;3.30;;
1577;SDS011;57623;53.608;10.004;2023-07-31T03:29:07;3.57;;;3.00;;
1577;SDS011;57623;53.608;10.004;2023-07-31T03:31:35;4.80;;;3.63;;
1577;SDS011;57623;53.608;10.004;2023-07-31T03:34:03;3.60;;;3.30;;
1577;SDS011;57623;53.608;10.004;2023-07-31T03:36:31;6.53;;;3.60;;
1577;SDS011;57623;53.608;10.004;2023-07-31T03:38:59;5.37;;;3.50;;
1577;SDS011;57623;53.608;10.004;2023-07-31T03:41:27;3.80;;;3.50;;
1577;SDS011;57623;53.608;10.004;2023-07-31T03:43:56;4.33;;;3.93;;
1577;SDS011;57623;53.608;10.004;2023-07-31T03:46:24;3.20;;;2.87;;
1577;SDS011;57623;53.608;10.004;2023-07-31T03:48:52;4.00;;;3.53;;
1577;SDS011;57623;53.608;10.004;2023-07-31T03:51:20;5.13;;;4.10;;
1577;SDS011;57623;53.608;10.004;2023-07-31T03:53:48;6.50;;;3.97;;
1577;SDS011;57623;53.608;10.004;2023-07-31T03:56:16;4.03;;;3.40;;
1577;SDS011;57623;53.608;10.004;2023-07-31T03:58:44;3.80;;;3.50;;
1577;SDS011;57623;53.608;10.004;2023-07-31T04:01:13;3.67;;;3.37;;
1577;SDS011;57623;53.608;10.004;2023-07-31T04:03:42;3.60;;;3.30;;
1577;SDS011;57623;53.608;10.004;2023-07-31T04:06:09;4.23;;;3.30;;
1577;SDS011;57623;53.608;10.004;2023-07-31T04:08:37;4.00;;;3.60;;
1577;SDS011;57623;53.608;10.004;2023-07-31T04:11:05;3.97;;;3.57;;
1577;SDS011;57623;53.608;10.004;2023-07-31T04:13:33;3.67;;;2.93;;
1577;SDS011;57623;53.608;10.004;2023-07-31T04:16:01;3.40;;;3.10;;
1577;SDS011;57623;53.608;10.004;2023-07-31T04:18:31;3.23;;;2.97;;
1577;SDS011;57623;53.608;10.004;2023-07-31T04:20:59;3.00;;;2.80;;
1577;SDS011;57623;53.608;10.004;2023-07-31T04:23:27;3.30;;;3.00;;
1577;SDS011;57623;53.608;10.004;2023-07-31T04:25:55;2.90;;;2.70;;
1577;SDS011;57623;53.608;10.004;2023-07-31T04:28:23;5.27;;;3.40;;
1577;SDS011;57623;53.608;10.004;2023-07-31T04:30:52;4.00;;;2.97;;
1577;SDS011;57623;53.608;10.004;2023-07-31T04:33:20;3.60;;;2.63;;
1577;SDS011;57623;53.608;10.004;2023-07-31T04:35:51;3.27;;;2.97;;
1577;SDS011;57623;53.608;10.004;2023-07-31T04:38:20;3.87;;;3.47;;
1577;SDS011;57623;53.608;10.004;2023-07-31T04:40:48;4.70;;;3.17;;
1577;SDS011;57623;53.608;10.004;2023-07-31T04:43:16;4.00;;;3.00;;
1577;SDS011;57623;53.608;10.004;2023-07-31T04:45:45;3.00;;;2.80;;
1577;SDS011;57623;53.608;10.004;2023-07-31T04:48:14;2.80;;;2.40;;
1577;SDS011;57623;53.608;10.004;2023-07-31T04:50:42;3.50;;;3.30;;
1577;SDS011;57623;53.608;10.004;2023-07-31T04:53:11;3.27;;;2.97;;
1577;SDS011;57623;53.608;10.004;2023-07-31T04:55:39;2.83;;;2.63;;
1577;SDS011;57623;53.608;10.004;2023-07-31T04:58:07;2.70;;;2.50;;
1577;SDS011;57623;53.608;10.004;2023-07-31T05:00:35;3.20;;;3.00;;
1577;SDS011;57623;53.608;10.004;2023-07-31T05:03:03;2.70;;;2.50;;
1577;SDS011;57623;53.608;10.004;2023-07-31T05:05:31;3.03;;;2.80;;
1577;SDS011;57623;53.608;10.004;2023-07-31T05:07:59;3.33;;;2.80;;
1577;SDS011;57623;53.608;10.004;2023-07-31T05:10:28;3.00;;;2.70;;
1577;SDS011;57623;53.608;10.004;2023-07-31T05:12:56;3.27;;;2.70;;
1577;SDS011;57623;53.608;10.004;2023-07-31T05:15:24;2.47;;;2.27;;
1577;SDS011;57623;53.608;10.004;2023-07-31T05:17:52;4.43;;;2.33;;
1577;SDS011;57623;53.608;10.004;2023-07-31T05:20:20;2.80;;;2.60;;
1577;SDS011;57623;53.608;10.004;2023-07-31T05:22:48;2.83;;;2.60;;
1577;SDS011;57623;53.608;10.004;2023-07-31T05:25:17;2.70;;;2.50;;
1577;SDS011;57623;53.608;10.004;2023-07-31T05:27:47;3.00;;;2.60;;
1577;SDS011;57623;53.608;10.004;2023-07-31T05:30:15;3.10;;;2.60;;
1577;SDS011;57623;53.608;10.004;2023-07-31T05:32:43;2.57;;;2.37;;
1577;SDS011;57623;53.608;10.004;2023-07-31T05:35:11;2.90;;;2.70;;
1577;SDS011;57623;53.608;10.004;2023-07-31T05:37:39;2.70;;;2.50;;
1577;SDS011;57623;53.608;10.004;2023-07-31T05:40:07;2.50;;;2.30;;
1577;SDS011;57623;53.608;10.004;2023-07-31T05:42:35;3.70;;;2.40;;
1577;SDS011;57623;53.608;10.004;2023-07-31T05:45:06;2.60;;;2.40;;
1577;SDS011;57623;53.608;10.004;2023-07-31T05:47:35;2.80;;;2.60;;
1577;SDS011;57623;53.608;10.004;2023-07-31T05:50:03;2.47;;;2.27;;
1577;SDS011;57623;53.608;10.004;2023-07-31T05:52:31;3.10;;;2.63;;
1577;SDS011;57623;53.608;10.004;2023-07-31T05:54:59;2.30;;;2.13;;
1577;SDS011;57623;53.608;10.004;2023-07-31T05:57:27;2.63;;;2.43;;
1577;SDS011;57623;53.608;10.004;2023-07-31T05:59:55;2.63;;;2.43;;
1577;SDS011;57623;53.608;10.004;2023-07-31T06:02:25;2.70;;;2.50;;
1577;SDS011;57623;53.608;10.004;2023-07-31T06:04:53;2.63;;;2.43;;
1577;SDS011;57623;53.608;10.004;2023-07-31T06:07:21;3.63;;;2.70;;
1577;SDS011;57623;53.608;10.004;2023-07-31T06:09:49;2.67;;;2.47;;
1577;SDS011;57623;53.608;10.004;2023-07-31T06:12:17;3.20;;;2.90;;
1577;SDS011;57623;53.608;10.004;2023-07-31T06:14:45;2.90;;;2.70;;
1577;SDS011;57623;53.608;10.004;2023-07-31T06:17:13;3.60;;;3.30;;
1577;SDS011;57623;53.608;10.004;2023-07-31T06:19:42;2.93;;;2.63;;
1577;SDS011;57623;53.608;10.004;2023-07-31T06:22:10;3.20;;;3.00;;
1577;SDS011;57623;53.608;10.004;2023-07-31T06:24:38;3.07;;;2.87;;
1577;SDS011;57623;53.608;10.004;2023-07-31T06:27:06;3.10;;;2.90;;
1577;SDS011;57623;53.608;10.004;2023-07-31T06:29:34;2.83;;;2.50;;
1577;SDS011;57623;53.608;10.004;2023-07-31T06:32:02;2.93;;;2.73;;
1577;SDS011;57623;53.608;10.004;2023-07-31T06:34:31;2.80;;;2.60;;
1577;SDS011;57623;53.608;10.004;2023-07-31T06:37:00;3.13;;;2.83;;
1577;SDS011;57623;53.608;10.004;2023-07-31T06:39:28;3.10;;;2.90;;
1577;SDS011;57623;53.608;10.004;2023-07-31T06:41:56;2.80;;;2.60;;
1577;SDS011;57623;53.608;10.004;2023-07-31T06:44:24;2.90;;;2.70;;
1577;SDS011;57623;53.608;10.004;2023-07-31T06:46:52;3.10;;;2.90;;
1577;SDS011;57623;53.608;10.004;2023-07-31T06:49:20;3.20;;;3.00;;
1577;SDS011;57623;53.608;10.004;2023-07-31T06:51:48;2.93;;;2.73;;
1577;SDS011;57623;53.608;10.004;2023-07-31T06:54:17;3.00;;;2.80;;
1577;SDS011;57623;53.608;10.004;2023-07-31T06:56:45;4.17;;;2.93;;
1577;SDS011;57623;53.608;10.004;2023-07-31T06:59:13;2.77;;;2.67;;
1577;SDS011;57623;53.608;10.004;2023-07-31T07:01:41;3.10;;;2.87;;
1577;SDS011;57623;53.608;10.004;2023-07-31T07:04:09;2.70;;;2.50;;
1577;SDS011;57623;53.608;10.004;2023-07-31T07:06:37;3.20;;;2.90;;
1577;SDS011;57623;53.608;10.004;2023-07-31T07:09:05;3.10;;;2.90;;
1577;SDS011;57623;53.608;10.004;2023-07-31T07:11:35;2.80;;;2.60;;
1577;SDS011;57623;53.608;10.004;2023-07-31T07:14:04;3.30;;;3.10;;
1577;SDS011;57623;53.608;10.004;2023-07-31T07:16:32;3.20;;;3.00;;
1577;SDS011;57623;53.608;10.004;2023-07-31T07:19:00;3.03;;;2.80;;
1577;SDS011;57623;53.608;10.004;2023-07-31T07:21:30;2.87;;;2.67;;
1577;SDS011;57623;53.608;10.004;2023-07-31T07:23:58;3.00;;;2.80;;
1577;SDS011;57623;53.608;10.004;2023-07-31T07:26:26;3.30;;;3.10;;
1577;SDS011;57623;53.608;10.004;2023-07-31T07:28:56;2.73;;;2.53;;
1577;SDS011;57623;53.608;10.004;2023-07-31T07:31:27;2.63;;;2.30;;
1577;SDS011;57623;53.608;10.004;2023-07-31T07:33:55;3.20;;;3.00;;
1577;SDS011;57623;53.608;10.004;2023-07-31T07:36:23;2.80;;;2.60;;
1577;SDS011;57623;53.608;10.004;2023-07-31T07:38:51;2.43;;;2.23;;
1577;SDS011;57623;53.608;10.004;2023-07-31T07:41:19;2.40;;;2.23;;
1577;SDS011;57623;53.608;10.004;2023-07-31T07:43:47;2.43;;;2.13;;
1577;SDS011;57623;53.608;10.004;2023-07-31T07:46:16;2.20;;;2.00;;
1577;SDS011;57623;53.608;10.004;2023-07-31T07:48:44;2.10;;;2.00;;
1577;SDS011;57623;53.608;10.004;2023-07-31T07:51:12;2.40;;;2.20;;
1577;SDS011;57623;53.608;10.004;2023-07-31T07:53:40;2.20;;;2.10;;
1577;SDS011;57623;53.608;10.004;2023-07-31T07:56:08;2.10;;;2.00;;
1577;SDS011;57623;53.608;10.004;2023-07-31T07:58:36;2.23;;;2.13;;
1577;SDS011;57623;53.608;10.004;2023-07-31T08:01:04;2.43;;;2.23;;
1577;SDS011;57623;53.608;10.004;2023-07-31T08:03:34;2.60;;;2.40;;
1577;SDS011;57623;53.608;10.004;2023-07-31T08:06:02;2.87;;;2.57;;
1577;SDS011;57623;53.608;10.004;2023-07-31T08:08:30;3.60;;;2.40;;
1577;SDS011;57623;53.608;10.004;2023-07-31T08:10:58;3.03;;;2.83;;
1577;SDS011;57623;53.608;10.004;2023-07-31T08:13:26;2.77;;;2.57;;
1577;SDS011;57623;53.608;10.004;2023-07-31T08:15:54;2.70;;;2.50;;
1577;SDS011;57623;53.608;10.004;2023-07-31T08:18:22;2.80;;;2.60;;
1577;SDS011;57623;53.608;10.004;2023-07-31T08:20:52;2.70;;;2.50;;
1577;SDS011;57623;53.608;10.004;2023-07-31T08:23:20;2.83;;;2.63;;
1577;SDS011;57623;53.608;10.004;2023-07-31T08:25:48;2.80;;;2.60;;
1577;SDS011;57623;53.608;10.004;2023-07-31T08:28:16;2.70;;;2.50;;
1577;SDS011;57623;53.608;10.004;2023-07-31T08:30:45;2.97;;;2.77;;
1577;SDS011;57623;53.608;10.004;2023-07-31T08:33:13;2.73;;;2.53;;
1577;SDS011;57623;53.608;10.004;2023-07-31T08:35:41;2.60;;;2.40;;
1577;SDS011;57623;53.608;10.004;2023-07-31T08:38:11;2.70;;;2.50;;
1577;SDS011;57623;53.608;10.004;2023-07-31T08:40:39;2.37;;;2.17;;
1577;SDS011;57623;53.608;10.004;2023-07-31T08:43:08;2.50;;;2.30;;
1577;SDS011;57623;53.608;10.004;2023-07-31T08:45:36;2.80;;;2.60;;
1577;SDS011;57623;53.608;10.004;2023-07-31T08:48:05;2.20;;;2.10;;
1577;SDS011;57623;53.608;10.004;2023-07-31T08:50:34;3.60;;;3.30;;
1577;SDS011;57623;53.608;10.004;2023-07-31T08:53:02;3.47;;;3.27;;
1577;SDS011;57623;53.608;10.004;2023-07-31T08:55:32;2.50;;;2.30;;
1577;SDS011;57623;53.608;10.004;2023-07-31T08:58:00;2.37;;;2.23;;
1577;SDS011;57623;53.608;10.004;2023-07-31T09:00:31;2.40;;;2.30;;
1577;SDS011;57623;53.608;10.004;2023-07-31T09:03:02;2.00;;;1.90;;
1577;SDS011;57623;53.608;10.004;2023-07-31T09:05:33;2.10;;;1.90;;
1577;SDS011;57623;53.608;10.004;2023-07-31T09:08:03;2.10;;;2.00;;
1577;SDS011;57623;53.608;10.004;2023-07-31T09:10:33;2.07;;;1.97;;
1577;SDS011;57623;53.608;10.004;2023-07-31T09:13:01;2.00;;;1.90;;
1577;SDS011;57623;53.608;10.004;2023-07-31T09:15:31;2.33;;;2.13;;
1577;SDS011;57623;53.608;10.004;2023-07-31T09:18:04;2.00;;;1.90;;
1577;SDS011;57623;53.608;10.004;2023-07-31T09:20:33;2.40;;;2.20;;
1577;SDS011;57623;53.608;10.004;2023-07-31T09:23:05;1.60;;;1.50;;
1577;SDS011;57623;53.608;10.004;2023-07-31T09:25:36;2.00;;;1.80;;
1577;SDS011;57623;53.608;10.004;2023-07-31T09:28:05;1.80;;;1.70;;
1577;SDS011;57623;53.608;10.004;2023-07-31T09:30:44;1.63;;;1.53;;
1577;SDS011;57623;53.608;10.004;2023-07-31T09:33:14;1.90;;;1.70;;
1577;SDS011;57623;53.608;10.004;2023-07-31T09:35:43;1.80;;;1.70;;
1577;SDS011;57623;53.608;10.004;2023-07-31T09:38:12;2.17;;;1.97;;
1577;SDS011;57623;53.608;10.004;2023-07-31T09:40:42;1.80;;;1.70;;
1577;SDS011;57623;53.608;10.004;2023-07-31T09:43:12;1.80;;;1.70;;
1577;SDS011;57623;53.608;10.004;2023-07-31T09:45:41;1.50;;;1.40;;
1577;SDS011;57623;53.608;10.004;2023-07-31T09:48:11;1.50;;;1.40;;
1577;SDS011;57623;53.608;10.004;2023-07-31T09:50:42;1.40;;;1.30;;
1577;SDS011;57623;53.608;10.004;2023-07-31T09:53:11;1.67;;;1.57;;
1577;SDS011;57623;53.608;10.004;2023-07-31T09:55:40;1.60;;;1.50;;
1577;SDS011;57623;53.608;10.004;2023-07-31T09:58:10;1.60;;;1.50;;
1577;SDS011;57623;53.608;10.004;2023-07-31T10:00:39;2.37;;;1.47;;
1577;SDS011;57623;53.608;10.004;2023-07-31T10:03:08;1.47;;;1.37;;
1577;SDS011;57623;53.608;10.004;2023-07-31T10:05:38;2.53;;;1.37;;
1577;SDS011;57623;53.608;10.004;2023-07-31T10:08:09;1.33;;;1.23;;
1577;SDS011;57623;53.608;10.004;2023-07-31T10:10:39;1.50;;;1.40;;
1577;SDS011;57623;53.608;10.004;2023-07-31T10:13:10;1.53;;;1.43;;
1577;SDS011;57623;53.608;10.004;2023-07-31T10:15:39;1.13;;;1.13;;
1577;SDS011;57623;53.608;10.004;2023-07-31T10:18:10;4.10;;;1.43;;
1577;SDS011;57623;53.608;10.004;2023-07-31T10:20:38;2.00;;;1.30;;
1577;SDS011;57623;53.608;10.004;2023-07-31T10:23:08;1.60;;;1.40;;
1577;SDS011;57623;53.608;10.004;2023-07-31T10:25:37;1.43;;;1.30;;
1577;SDS011;57623;53.608;10.004;2023-07-31T10:28:07;1.13;;;1.13;;
1577;SDS011;57623;53.608;10.004;2023-07-31T10:30:36;1.37;;;1.10;;
1577;SDS011;57623;53.608;10.004;2023-07-31T10:33:05;1.30;;;1.20;;
1577;SDS011;57623;53.608;10.004;2023-07-31T10:35:35;1.10;;;1.10;;
1577;SDS011;57623;53.608;10.004;2023-07-31T10:38:09;1.10;;;1.00;;
1577;SDS011;57623;53.608;10.004;2023-07-31T10:40:38;2.00;;;0.90;;
1577;SDS011;57623;53.608;10.004;2023-07-31T10:43:08;0.70;;;0.70;;
1577;SDS011;57623;53.608;10.004;2023-07-31T10:45:38;0.70;;;0.70;;
1577;SDS011;57623;53.608;10.004;2023-07-31T10:48:12;0.90;;;0.60;;
1577;SDS011;57623;53.608;10.004;2023-07-31T10:50:46;0.80;;;0.80;;
1577;SDS011;57623;53.608;10.004;2023-07-31T10:53:22;1.27;;;0.90;;
1577;SDS011;57623;53.608;10.004;2023-07-31T10:55:50;1.97;;;0.90;;
1577;SDS011;57623;53.608;10.004;2023-07-31T10:58:20;0.60;;;0.60;;
1577;SDS011;57623;53.608;10.004;2023-07-31T11:00:49;0.70;;;0.70;;
1577;SDS011;57623;53.608;10.004;2023-07-31T11:03:19;0.80;;;0.80;;
1577;SDS011;57623;53.608;10.004;2023-07-31T11:05:52;1.00;;;0.90;;
1577;SDS011;57623;53.608;10.004;2023-07-31T11:08:21;1.03;;;0.93;;
1577;SDS011;57623;53.608;10.004;2023-07-31T11:10:50;1.60;;;1.00;;
1577;SDS011;57623;53.608;10.004;2023-07-31T11:13:33;2.00;;;0.97;;
1577;SDS011;57623;53.608;10.004;2023-07-31T11:16:07;1.47;;;1.30;;
1577;SDS011;57623;53.608;10.004;2023-07-31T11:18:35;2.50;;;1.00;;
1577;SDS011;57623;53.608;10.004;2023-07-31T11:21:05;0.97;;;0.97;;
1577;SDS011;57623;53.608;10.004;2023-07-31T11:23:33;1.83;;;1.20;;
1577;SDS011;57623;53.608;10.004;2023-07-31T11:26:04;1.43;;;1.20;;
1577;SDS011;57623;53.608;10.004;2023-07-31T11:28:34;1.20;;;1.10;;
1577;SDS011;57623;53.608;10.004;2023-07-31T11:31:03;1.10;;;1.10;;
1577;SDS011;57623;53.608;10.004;2023-07-31T11:33:32;1.33;;;0.93;;
1577;SDS011;57623;53.608;10.004;2023-07-31T11:35:59;1.17;;;1.17;;
1577;SDS011;57623;53.608;10.004;2023-07-31T11:38:28;0.70;;;0.70;;
1577;SDS011;57623;53.608;10.004;2023-07-31T11:40:58;0.70;;;0.70;;
1577;SDS011;57623;53.608;10.004;2023-07-31T11:43:27;8.50;;;7.70;;
1577;SDS011;57623;53.608;10.004;2023-07-31T11:45:57;1.47;;;1.37;;
1577;SDS011;57623;53.608;10.004;2023-07-31T11:48:26;1.47;;;0.80;;
1577;SDS011;57623;53.608;10.004;2023-07-31T11:50:57;0.90;;;0.77;;
1577;SDS011;57623;53.608;10.004;2023-07-31T11:53:26;0.97;;;0.70;;
1577;SDS011;57623;53.608;10.004;2023-07-31T11:55:57;1.10;;;0.70;;
1577;SDS011;57623;53.608;10.004;2023-07-31T11:58:26;1.53;;;0.80;;
1577;SDS011;57623;53.608;10.004;2023-07-31T12:00:57;2.03;;;1.00;;
1577;SDS011;57623;53.608;10.004;2023-07-31T12:03:26;2.07;;;1.40;;
1577;SDS011;57623;53.608;10.004;2023-07-31T12:05:55;1.43;;;1.20;;
1577;SDS011;57623;53.608;10.004;2023-07-31T12:08:23;0.70;;;0.67;;
1577;SDS011;57623;53.608;10.004;2023-07-31T12:10:52;0.97;;;0.97;;
1577;SDS011;57623;53.608;10.004;2023-07-31T12:13:21;1.27;;;0.90;;
1577;SDS011;57623;53.608;10.004;2023-07-31T12:15:53;1.00;;;0.93;;
1577;SDS011;57623;53.608;10.004;2023-07-31T12:18:25;1.50;;;1.20;;
1577;SDS011;57623;53.608;10.004;2023-07-31T12:20:55;1.70;;;0.87;;
1577;SDS011;57623;53.608;10.004;2023-07-31T12:23:25;2.00;;;1.10;;
1577;SDS011;57623;53.608;10.004;2023-07-31T12:26:01;1.27;;;1.10;;
1577;SDS011;57623;53.608;10.004;2023-07-31T12:28:29;1.70;;;1.10;;
1577;SDS011;57623;53.608;10.004;2023-07-31T12:30:58;1.10;;;1.00;;
1577;SDS011;57623;53.608;10.004;2023-07-31T12:33:32;1.60;;;1.30;;
1577;SDS011;57623;53.608;10.004;2023-07-31T12:36:02;1.10;;;1.00;;
1577;SDS011;57623;53.608;10.004;2023-07-31T12:38:31;2.63;;;1.57;;
1577;SDS011;57623;53.608;10.004;2023-07-31T12:40:59;1.37;;;1.27;;
1577;SDS011;57623;53.608;10.004;2023-07-31T12:43:27;1.30;;;1.20;;
1577;SDS011;57623;53.608;10.004;2023-07-31T12:45:55;0.90;;;0.90;;
1577;SDS011;57623;53.608;10.004;2023-07-31T12:48:23;1.33;;;1.00;;
1577;SDS011;57623;53.608;10.004;2023-07-31T12:50:52;0.83;;;0.83;;
1577;SDS011;57623;53.608;10.004;2023-07-31T12:53:20;0.73;;;0.73;;
1577;SDS011;57623;53.608;10.004;2023-07-31T12:55:48;0.70;;;0.70;;
1577;SDS011;57623;53.608;10.004;2023-07-31T12:58:17;0.80;;;0.70;;
1577;SDS011;57623;53.608;10.004;2023-07-31T13:00:44;1.10;;;0.90;;
1577;SDS011;57623;53.608;10.004;2023-07-31T13:03:12;0.70;;;0.70;;
1577;SDS011;57623;53.608;10.004;2023-07-31T13:05:41;0.80;;;0.80;;
1577;SDS011;57623;53.608;10.004;2023-07-31T13:08:11;1.57;;;1.00;;
1577;SDS011;57623;53.608;10.004;2023-07-31T13:10:40;0.73;;;0.73;;
1577;SDS011;57623;53.608;10.004;2023-07-31T13:13:08;0.97;;;0.97;;
1577;SDS011;57623;53.608;10.004;2023-07-31T13:15:36;1.30;;;0.80;;
1577;SDS011;57623;53.608;10.004;2023-07-31T13:18:04;0.80;;;0.80;;
1577;SDS011;57623;53.608;10.004;2023-07-31T13:20:32;0.60;;;0.60;;
1577;SDS011;57623;53.608;10.004;2023-07-31T13:23:01;0.70;;;0.70;;
1577;SDS011;57623;53.608;10.004;2023-07-31T13:25:30;0.83;;;0.83;;
1577;SDS011;57623;53.608;10.004;2023-07-31T13:27:58;1.07;;;0.60;;
1577;SDS011;57623;53.608;10.004;2023-07-31T13:30:29;2.17;;;0.70;;
1577;SDS011;57623;53.608;10.004;2023-07-31T13:32:57;0.80;;;0.70;;
1577;SDS011;57623;53.608;10.004;2023-07-31T13:35:25;1.00;;;0.90;;
1577;SDS011;57623;53.608;10.004;2023-07-31T13:37:53;0.90;;;0.90;;
1577;SDS011;57623;53.608;10.004;2023-07-31T13:40:21;1.13;;;1.03;;
1577;SDS011;57623;53.608;10.004;2023-07-31T13:42:50;0.60;;;0.60;;
1577;SDS011;57623;53.608;10.004;2023-07-31T13:45:19;0.70;;;0.70;;
1577;SDS011;57623;53.608;10.004;2023-07-31T13:47:48;1.03;;;0.77;;
1577;SDS011;57623;53.608;10.004;2023-07-31T13:50:17;0.70;;;0.70;;
1577;SDS011;57623;53.608;10.004;2023-07-31T13:52:47;0.80;;;0.80;;
1577;SDS011;57623;53.608;10.004;2023-07-31T13:55:15;1.20;;;0.70;;
1577;SDS011;57623;53.608;10.004;2023-07-31T13:57:43;0.60;;;0.60;;
1577;SDS011;57623;53.608;10.004;2023-07-31T14:00:13;0.77;;;0.77;;
1577;SDS011;57623;53.608;10.004;2023-07-31T14:02:41;0.70;;;0.70;;
1577;SDS011;57623;53.608;10.004;2023-07-31T14:05:09;2.23;;;1.10;;
1577;SDS011;57623;53.608;10.004;2023-07-31T14:07:37;2.83;;;1.07;;
1577;SDS011;57623;53.608;10.004;2023-07-31T14:10:05;1.27;;;0.70;;
1577;SDS011;57623;53.608;10.004;2023-07-31T14:12:34;0.83;;;0.77;;
1577;SDS011;57623;53.608;10.004;2023-07-31T14:15:09;1.20;;;0.70;;
1577;SDS011;57623;53.608;10.004;2023-07-31T14:17:39;0.80;;;0.80;;
1577;SDS011;57623;53.608;10.004;2023-07-31T14:20:07;1.30;;;0.67;;
1577;SDS011;57623;53.608;10.004;2023-07-31T14:22:37;0.70;;;0.70;;
1577;SDS011;57623;53.608;10.004;2023-07-31T14:25:05;0.80;;;0.70;;
1577;SDS011;57623;53.608;10.004;2023-07-31T14:27:36;1.07;;;0.77;;
1577;SDS011;57623;53.608;10.004;2023-07-31T14:30:05;0.90;;;0.80;;
1577;SDS011;57623;53.608;10.004;2023-07-31T14:32:34;1.43;;;0.80;;
1577;SDS011;57623;53.608;10.004;2023-07-31T14:35:05;1.30;;;1.20;;
1577;SDS011;57623;53.608;10.004;2023-07-31T14:37:36;2.80;;;2.00;;
1577;SDS011;57623;53.608;10.004;2023-07-31T14:40:06;5.70;;;2.90;;
1577;SDS011;57623;53.608;10.004;2023-07-31T14:42:36;3.73;;;2.03;;
1577;SDS011;57623;53.608;10.004;2023-07-31T14:45:05;2.60;;;2.40;;
1577;SDS011;57623;53.608;10.004;2023-07-31T14:47:34;5.93;;;3.60;;
1577;SDS011;57623;53.608;10.004;2023-07-31T14:50:03;3.40;;;2.27;;
1577;SDS011;57623;53.608;10.004;2023-07-31T14:52:33;2.60;;;2.20;;
1577;SDS011;57623;53.608;10.004;2023-07-31T14:55:01;4.57;;;2.77;;
1577;SDS011;57623;53.608;10.004;2023-07-31T14:57:29;2.30;;;1.90;;